This is the latest recevied weather packets stored in our database for station/object F8COD-13. If no packets are shown the sender has not sent any weather packets the latest 10 day(s).
| Time | Temp. | Humidity | Pressure | Rain* | Wind** | Luminosity | Snow |
|---|---|---|---|---|---|---|---|
| 1777568418 | 22.78° C | 33% | 1018.3 hPa | 0 mm | - | - | - |
| 1777563017 | 23.89° C | 33% | 1018.1 hPa | 0 mm | - | - | - |
| 1777561817 | 23.33° C | 31% | 1018.2 hPa | 0 mm | - | - | - |
| 1777561217 | 23.33° C | 31% | 1018.2 hPa | 0 mm | - | - | - |
| 1777554617 | 22.78° C | 33% | 1018.7 hPa | 0 mm | - | - | - |
| 1777552217 | 22.22° C | 33% | 1018.9 hPa | 0 mm | - | - | - |
| 1777548017 | 21.11° C | 33% | 1019.3 hPa | 0 mm | - | - | - |
| 1777543217 | 19.44° C | 36% | 1019.6 hPa | 0 mm | - | - | - |
| 1777539017 | 17.78° C | 39% | 1019.9 hPa | 0 mm | - | - | - |
| 1777534817 | 16.11° C | 42% | 1019.9 hPa | 0 mm | - | - | - |
| 1777534217 | 15.56° C | 42% | 1019.9 hPa | 0 mm | - | - | - |
| 1777533616 | 15° C | 42% | 1019.8 hPa | 0 mm | - | - | - |
| 1777527016 | 11.11° C | 50% | 1019.6 hPa | 0 mm | - | - | - |
| 1777523514 | 11.67° C | 48% | 1019.4 hPa | 0 mm | - | - | - |
| 1777518036 | 12.78° C | 44% | 1018.9 hPa | 0 mm | - | - | - |
| 1777517416 | 12.78° C | 44% | 1018.9 hPa | 0 mm | - | - | - |
| 1777516216 | 13.33° C | 43% | 1018.9 hPa | 0 mm | - | - | - |
| 1777515016 | 13.33° C | 42% | 1018.8 hPa | 0 mm | - | - | - |
| 1777513818 | 13.89° C | 41% | 1018.9 hPa | 0 mm | - | - | - |
| 1777513238 | 13.89° C | 41% | 1018.8 hPa | 0 mm | - | - | - |
| 1777509638 | 14.44° C | 39% | 1018.7 hPa | 0 mm | - | - | - |
| 1777506618 | 15.56° C | 37% | 1018.7 hPa | 0 mm | - | - | - |
| 1777505418 | 15.56° C | 37% | 1018.7 hPa | 0 mm | - | - | - |
| 1777498236 | 17.22° C | 39% | 1018.1 hPa | 0 mm | - | - | - |
| 1777494636 | 18.33° C | 40% | 1017.8 hPa | 0 mm | - | - | - |
* Rain latest hour (hover to see other rain measurements)
** Current wind speed in m/s (hover to see current wind gust speed)